Troy, Missouri
Current Conditions -  °F | °C
As of 3:55 AM on Friday 19 Dec 2014 (Local Time) from KFYG Reporting Station
Overcast Overcast  
Wind Chill: 32°   Ceiling: 2500
Heat Index: 32°   Visibility: 7mi
Dew Point: 28°   Wind: 0mph
Humidity: 87%   Direction: NA
Pressure: 30.28"   Gusts: NA
Location:  38.98°N, 90.98°W
Report Text: KFYG 190955Z AUTO 00000KT 7SM OVC025 00/M02 A3028 RMK AO2
Loading
Personal Weather Stations






























Interactive Weather Map New forecast layout! Learn more

10-Day Weather Forecast

Advertisements
Track Severe Weather on mobile